createdAt,value
2018-09-29T00:00:48.023Z,35.60
2018-09-29T00:03:22.233Z,35.70
2018-09-29T00:05:57.186Z,35.50
2018-09-29T00:08:31.492Z,35.40
2018-09-29T00:11:05.721Z,35.60
2018-09-29T00:13:40.037Z,35.30
2018-09-29T00:16:14.299Z,35.10
2018-09-29T00:18:49.348Z,35.70
2018-09-29T00:21:24.630Z,36.80
2018-09-29T00:23:58.982Z,36.80
2018-09-29T00:26:33.297Z,36.20
2018-09-29T00:29:07.635Z,35.80
2018-09-29T00:31:41.757Z,36.10
2018-09-29T00:34:16.055Z,37.10
2018-09-29T00:36:50.339Z,36.90
2018-09-29T00:39:24.799Z,36.50
2018-09-29T00:41:59.713Z,36.80
2018-09-29T00:44:33.985Z,36.70
2018-09-29T00:47:09.024Z,37.30
2018-09-29T00:49:43.982Z,37.70
2018-09-29T00:52:19.038Z,36.90
2018-09-29T00:54:54.079Z,36.50
2018-09-29T00:57:28.333Z,36.50
2018-09-29T01:00:02.566Z,37.40
2018-09-29T01:02:38.291Z,36.50
2018-09-29T01:05:12.452Z,36.60
2018-09-29T01:07:46.762Z,37.30
2018-09-29T01:10:21.019Z,36.70
2018-09-29T01:12:56.016Z,36.20
2018-09-29T01:15:30.174Z,36.20
2018-09-29T01:18:04.722Z,37.10
2018-09-29T01:20:39.565Z,37.30
2018-09-29T01:23:13.900Z,37.30
2018-09-29T01:25:48.912Z,37.60
2018-09-29T01:28:23.047Z,37.60
2018-09-29T01:30:57.424Z,37.80
2018-09-29T01:33:32.453Z,37.80
2018-09-29T01:36:06.737Z,37.70
2018-09-29T01:38:41.320Z,37.50
2018-09-29T01:41:15.549Z,37.70
2018-09-29T01:43:49.858Z,37.70
2018-09-29T01:46:24.158Z,37.70
2018-09-29T01:48:58.458Z,38.00
2018-09-29T01:51:32.706Z,38.00
2018-09-29T01:54:07.953Z,37.60
2018-09-29T01:56:42.882Z,37.50
2018-09-29T01:59:17.183Z,37.50
2018-09-29T02:01:51.419Z,38.10
2018-09-29T02:04:25.721Z,38.70
2018-09-29T02:07:00.091Z,38.90
2018-09-29T02:09:34.349Z,39.40
2018-09-29T02:12:09.390Z,38.70
2018-09-29T02:14:44.405Z,39.20
2018-09-29T02:17:18.500Z,39.00
2018-09-29T02:19:52.719Z,38.70
2018-09-29T02:22:28.019Z,39.40
2018-09-29T02:25:02.270Z,39.30
2018-09-29T02:27:36.577Z,38.70
2018-09-29T02:30:11.647Z,39.70
2018-09-29T02:32:45.865Z,39.70
2018-09-29T02:35:20.103Z,39.20
2018-09-29T02:37:54.702Z,39.10
2018-09-29T02:40:28.935Z,39.10
2018-09-29T02:43:03.330Z,39.10
2018-09-29T02:45:37.622Z,39.40
2018-09-29T02:48:12.038Z,39.10
2018-09-29T02:50:46.333Z,39.80
2018-09-29T02:53:20.542Z,39.40
2018-09-29T02:55:54.805Z,39.20
2018-09-29T02:58:29.065Z,39.70
2018-09-29T03:01:04.083Z,39.90
2018-09-29T03:03:39.195Z,40.00
2018-09-29T03:06:13.530Z,40.00
2018-09-29T03:08:47.611Z,40.00
2018-09-29T03:11:21.967Z,40.10
2018-09-29T03:13:56.360Z,40.20
2018-09-29T03:16:30.660Z,40.00
2018-09-29T03:19:04.970Z,39.90
2018-09-29T03:21:39.950Z,40.40
2018-09-29T03:24:14.229Z,40.40
2018-09-29T03:26:48.698Z,40.10
2018-09-29T03:29:22.987Z,41.00
2018-09-29T03:31:57.617Z,41.00
2018-09-29T03:34:31.634Z,40.80
2018-09-29T03:42:39.359Z,41.40
2018-09-29T03:45:17.372Z,41.10
2018-09-29T03:47:55.492Z,41.60
2018-09-29T03:50:33.947Z,42.00
2018-09-29T03:53:16.112Z,42.10
2018-09-29T03:56:02.118Z,42.10
2018-09-29T03:58:44.622Z,42.80
2018-09-29T04:01:22.435Z,42.00
2018-09-29T04:04:01.041Z,42.00
2018-09-29T04:06:44.282Z,41.90
2018-09-29T04:09:21.185Z,42.60
2018-09-29T04:12:15.967Z,42.60
2018-09-29T04:14:58.893Z,42.70
2018-09-29T04:17:39.195Z,43.00
2018-09-29T04:20:19.543Z,43.20
2018-09-29T04:22:59.384Z,43.30
2018-09-29T04:25:36.758Z,43.50
2018-09-29T04:28:13.596Z,43.30
2018-09-29T04:30:55.716Z,43.20
2018-09-29T04:33:46.183Z,43.10
2018-09-29T04:36:29.227Z,43.60
2018-09-29T04:39:07.934Z,44.00
2018-09-29T04:41:46.122Z,43.90
2018-09-29T04:44:22.962Z,44.00
2018-09-29T04:47:01.244Z,43.90
2018-09-29T04:49:37.303Z,43.80
2018-09-29T04:52:15.157Z,44.00
2018-09-29T04:54:58.579Z,44.70
2018-09-29T04:57:38.719Z,45.10
2018-09-29T05:00:36.262Z,45.00
2018-09-29T05:03:14.858Z,44.90
2018-09-29T05:05:53.982Z,45.00
2018-09-29T05:08:38.344Z,45.90
2018-09-29T05:11:22.567Z,46.20
2018-09-29T05:14:03.537Z,46.30
2018-09-29T05:16:45.947Z,46.60
2018-09-29T05:19:26.836Z,46.20
2018-09-29T05:22:08.551Z,46.20
2018-09-29T05:24:54.722Z,46.20
2018-09-29T05:27:40.096Z,46.10
2018-09-29T05:30:20.871Z,46.00
2018-09-29T05:33:03.996Z,46.00
2018-09-29T05:35:42.752Z,46.10
2018-09-29T05:38:21.431Z,46.70
2018-09-29T05:41:00.056Z,46.70
2018-09-29T05:46:25.628Z,46.60
2018-09-29T05:49:05.224Z,46.60
2018-09-29T05:51:39.944Z,46.40
2018-09-29T05:54:17.952Z,47.10
2018-09-29T05:57:01.639Z,47.20
2018-09-29T05:59:46.219Z,47.10
2018-09-29T06:02:24.837Z,46.90
2018-09-29T06:05:09.459Z,47.10
2018-09-29T06:07:52.587Z,46.30
2018-09-29T06:10:29.785Z,46.40
2018-09-29T06:13:08.339Z,46.50
2018-09-29T06:15:42.480Z,46.60
2018-09-29T06:18:16.787Z,45.40
2018-09-29T06:20:53.004Z,45.20
2018-09-29T06:23:28.492Z,45.50
2018-09-29T06:26:03.724Z,45.50
2018-09-29T06:28:38.234Z,45.70
2018-09-29T06:31:13.876Z,44.80
2018-09-29T06:33:49.879Z,45.10
2018-09-29T06:39:25.986Z,44.10
2018-09-29T06:45:00.138Z,43.70
2018-09-29T06:47:34.974Z,43.60
2018-09-29T06:50:11.997Z,42.70
2018-09-29T06:52:41.682Z,42.70
2018-09-29T06:55:09.902Z,42.70
2018-09-29T06:57:38.175Z,42.90
2018-09-29T07:00:06.449Z,42.80
2018-09-29T07:02:34.790Z,42.80
2018-09-29T07:05:03.031Z,41.90
2018-09-29T07:07:31.283Z,42.20
2018-09-29T07:09:59.535Z,42.90
2018-09-29T07:12:27.819Z,42.20
2018-09-29T07:14:56.066Z,41.50
2018-09-29T07:17:24.760Z,41.60
2018-09-29T07:19:53.056Z,41.10
2018-09-29T07:22:21.290Z,40.60
2018-09-29T07:24:49.739Z,39.70
2018-09-29T07:27:17.969Z,40.20
2018-09-29T07:29:46.246Z,40.10
2018-09-29T07:32:14.610Z,40.10
2018-09-29T07:34:42.858Z,39.20
2018-09-29T07:37:11.882Z,38.90
2018-09-29T07:39:40.139Z,38.80
2018-09-29T07:42:08.384Z,38.80
2018-09-29T07:44:36.674Z,38.20
2018-09-29T07:47:05.689Z,38.40
2018-09-29T07:49:33.982Z,38.40
2018-09-29T07:52:02.251Z,37.60
2018-09-29T07:54:30.563Z,37.70
2018-09-29T07:56:58.830Z,37.30
2018-09-29T07:59:27.846Z,36.90
2018-09-29T08:01:56.880Z,37.10
2018-09-29T08:04:25.137Z,36.80
2018-09-29T08:06:54.150Z,36.30
2018-09-29T08:09:22.419Z,36.20
2018-09-29T08:11:50.679Z,38.10
2018-09-29T08:14:19.722Z,36.20
2018-09-29T08:16:47.990Z,35.40
2018-09-29T08:19:16.310Z,33.50
2018-09-29T08:21:45.316Z,32.80
2018-09-29T08:24:13.583Z,32.70
2018-09-29T08:26:42.624Z,33.50
2018-09-29T08:29:10.889Z,33.50
2018-09-29T08:31:39.138Z,33.00
2018-09-29T08:34:07.918Z,33.00
2018-09-29T08:36:37.036Z,32.10
2018-09-29T08:39:06.329Z,32.10
2018-09-29T08:41:34.592Z,32.10
2018-09-29T08:44:03.667Z,31.60
2018-09-29T08:46:31.921Z,31.60
2018-09-29T08:49:00.902Z,33.40
2018-09-29T08:51:29.143Z,30.40
2018-09-29T08:53:57.451Z,31.00
2018-09-29T08:56:25.768Z,31.10
2018-09-29T08:58:54.407Z,32.10
2018-09-29T09:01:22.706Z,31.70
2018-09-29T09:03:51.040Z,31.40
2018-09-29T09:08:54.239Z,29.10
2018-09-29T09:11:22.519Z,29.70
2018-09-29T09:13:50.912Z,29.70
2018-09-29T09:16:19.097Z,30.00
2018-09-29T09:18:47.375Z,29.40
2018-09-29T09:21:15.618Z,28.80
2018-09-29T09:23:43.962Z,28.90
2018-09-29T09:26:12.725Z,29.00
2018-09-29T09:28:41.016Z,29.20
2018-09-29T09:31:10.042Z,29.40
2018-09-29T09:33:38.307Z,28.90
2018-09-29T09:36:06.564Z,29.00
2018-09-29T09:38:35.596Z,29.00
2018-09-29T09:41:03.867Z,28.90
2018-09-29T09:43:32.206Z,27.80
2018-09-29T09:46:00.407Z,28.50
2018-09-29T09:48:29.417Z,26.90
2018-09-29T09:50:57.750Z,26.90
2018-09-29T09:53:26.064Z,27.20
2018-09-29T09:55:54.353Z,28.50
2018-09-29T09:58:22.615Z,27.60
2018-09-29T10:00:50.866Z,27.90
2018-09-29T10:03:19.146Z,27.90
2018-09-29T10:05:48.155Z,28.40
2018-09-29T10:08:16.453Z,27.80
2018-09-29T10:10:44.698Z,27.80
2018-09-29T10:13:12.939Z,27.70
2018-09-29T10:15:41.972Z,26.10
2018-09-29T10:18:10.253Z,26.10
2018-09-29T10:20:38.513Z,27.10
2018-09-29T10:23:06.795Z,25.60
2018-09-29T10:25:35.079Z,27.20
2018-09-29T10:28:03.343Z,25.70
2018-09-29T10:30:31.608Z,26.40
2018-09-29T10:32:59.893Z,26.80
2018-09-29T10:35:28.228Z,27.90
2018-09-29T10:37:56.532Z,25.70
2018-09-29T10:40:25.543Z,25.00
2018-09-29T10:42:53.811Z,25.00
2018-09-29T10:45:22.067Z,25.00
2018-09-29T10:47:51.118Z,24.80
2018-09-29T10:50:19.357Z,24.20
2018-09-29T10:52:47.625Z,24.90
2018-09-29T10:55:16.829Z,24.40
2018-09-29T10:57:45.165Z,24.40
2018-09-29T11:00:14.141Z,24.40
2018-09-29T11:02:42.420Z,24.40
2018-09-29T11:05:10.854Z,23.90
2018-09-29T11:07:38.928Z,24.20
2018-09-29T11:10:07.301Z,23.90
2018-09-29T11:12:35.541Z,23.90
2018-09-29T11:15:04.552Z,23.70
2018-09-29T11:17:32.809Z,23.70
2018-09-29T11:20:01.983Z,24.70
2018-09-29T11:22:30.232Z,24.60
2018-09-29T11:24:58.548Z,23.10
2018-09-29T11:27:26.946Z,23.30
2018-09-29T11:29:55.971Z,24.80
2018-09-29T11:32:24.259Z,24.80
2018-09-29T11:34:52.515Z,23.00
2018-09-29T11:37:20.910Z,22.80
2018-09-29T11:39:49.985Z,21.00
2018-09-29T11:42:18.279Z,21.00
2018-09-29T11:44:46.544Z,21.80
2018-09-29T11:47:14.833Z,22.30
2018-09-29T11:49:43.068Z,24.00
2018-09-29T11:52:11.300Z,23.10
2018-09-29T11:54:39.563Z,22.30
2018-09-29T11:57:07.839Z,22.70
2018-09-29T11:59:36.103Z,22.20
2018-09-29T12:02:05.139Z,21.50
2018-09-29T12:04:33.518Z,21.40
2018-09-29T12:07:02.583Z,22.20
2018-09-29T12:09:31.015Z,22.10
2018-09-29T12:11:59.286Z,22.00
2018-09-29T12:14:28.293Z,21.90
2018-09-29T12:16:56.581Z,21.90
2018-09-29T12:19:24.842Z,22.10
2018-09-29T12:21:53.110Z,21.90
2018-09-29T12:24:21.386Z,20.30
2018-09-29T12:26:49.639Z,21.50
2018-09-29T12:29:18.680Z,21.30
2018-09-29T12:31:46.932Z,21.20
2018-09-29T12:34:15.194Z,20.90
2018-09-29T12:36:44.277Z,20.30
2018-09-29T12:39:12.475Z,21.00
2018-09-29T12:41:40.813Z,20.30
2018-09-29T12:44:09.017Z,20.30
2018-09-29T12:46:37.279Z,20.30
2018-09-29T12:49:06.310Z,20.40
2018-09-29T12:51:34.630Z,20.40
2018-09-29T12:54:02.826Z,21.80
2018-09-29T12:56:31.850Z,20.60
2018-09-29T12:59:00.173Z,20.60
2018-09-29T13:01:28.366Z,20.00
2018-09-29T13:03:57.401Z,19.90
2018-09-29T13:06:25.692Z,19.90
2018-09-29T13:08:53.952Z,19.90
2018-09-29T13:11:22.246Z,20.70
2018-09-29T13:13:50.518Z,19.70
2018-09-29T13:16:18.860Z,20.50
2018-09-29T13:18:47.090Z,19.70
2018-09-29T13:21:15.382Z,19.50
2018-09-29T13:23:44.422Z,20.40
2018-09-29T13:26:12.686Z,20.40
2018-09-29T13:28:40.928Z,20.50
2018-09-29T13:31:09.950Z,20.70
2018-09-29T13:33:38.228Z,20.60
2018-09-29T13:36:06.492Z,20.50
2018-09-29T13:38:34.747Z,19.70
2018-09-29T13:41:03.783Z,20.10
2018-09-29T13:43:32.157Z,20.00
2018-09-29T13:46:00.508Z,19.40
2018-09-29T13:48:28.699Z,20.10
2018-09-29T13:50:56.983Z,20.80
2018-09-29T13:53:25.232Z,19.40
2018-09-29T13:55:53.490Z,19.90
2018-09-29T13:58:22.542Z,18.00
2018-09-29T14:00:50.805Z,18.00
2018-09-29T14:03:19.799Z,18.50
2018-09-29T14:05:48.047Z,18.70
2018-09-29T14:08:16.313Z,19.40
2018-09-29T14:10:44.565Z,19.10
2018-09-29T14:13:13.609Z,18.00
2018-09-29T14:15:41.861Z,17.90
2018-09-29T14:18:10.110Z,18.60
2018-09-29T14:20:39.185Z,19.00
2018-09-29T14:23:07.435Z,19.00
2018-09-29T14:25:37.545Z,18.70
2018-09-29T14:28:05.914Z,18.80
2018-09-29T14:30:34.159Z,18.30
2018-09-29T14:33:03.190Z,19.80
2018-09-29T14:35:31.538Z,19.70
2018-09-29T14:38:00.002Z,19.30
2018-09-29T14:40:29.019Z,17.90
2018-09-29T14:42:57.263Z,17.90
2018-09-29T14:45:27.230Z,18.30
2018-09-29T14:47:55.528Z,18.30
2018-09-29T14:50:23.791Z,19.10
2018-09-29T14:52:52.051Z,18.50
2018-09-29T14:55:20.273Z,19.30
2018-09-29T14:57:49.354Z,20.10
2018-09-29T15:00:17.635Z,20.10
2018-09-29T15:02:45.879Z,19.20
2018-09-29T15:05:14.965Z,19.40
2018-09-29T15:07:43.204Z,19.40
2018-09-29T15:10:11.472Z,19.40
2018-09-29T15:12:39.747Z,20.10
2018-09-29T15:15:07.973Z,20.20
2018-09-29T15:17:36.224Z,20.10
2018-09-29T15:20:04.496Z,20.00
2018-09-29T15:22:33.106Z,19.70
2018-09-29T15:25:01.354Z,20.50
2018-09-29T15:27:29.641Z,19.20
2018-09-29T15:29:57.911Z,19.60
2018-09-29T15:32:26.151Z,19.60
2018-09-29T15:34:55.177Z,19.40
2018-09-29T15:37:23.447Z,19.40
2018-09-29T15:39:51.733Z,20.20
2018-09-29T15:42:20.003Z,20.10
2018-09-29T15:44:49.215Z,20.00
2018-09-29T15:47:17.426Z,21.00
2018-09-29T15:49:45.698Z,20.00
2018-09-29T15:52:13.942Z,19.70
2018-09-29T15:54:42.983Z,20.20
2018-09-29T15:57:11.242Z,20.20
2018-09-29T15:59:39.764Z,19.90
2018-09-29T16:02:08.035Z,20.00
2018-09-29T16:04:36.318Z,19.90
2018-09-29T16:07:04.695Z,19.80
2018-09-29T16:09:33.785Z,19.80
2018-09-29T16:12:02.037Z,19.70
2018-09-29T16:14:31.791Z,20.10
2018-09-29T16:16:59.996Z,20.10
2018-09-29T16:19:28.362Z,20.40
2018-09-29T16:21:56.615Z,22.00
2018-09-29T16:24:24.904Z,21.00
2018-09-29T16:26:53.149Z,20.50
2018-09-29T16:29:21.415Z,21.60
2018-09-29T16:31:49.709Z,22.70
2018-09-29T16:34:17.977Z,22.10
2018-09-29T16:36:46.221Z,22.60
2018-09-29T16:39:15.297Z,23.20
2018-09-29T16:41:43.650Z,23.10
2018-09-29T16:44:11.931Z,22.90
2018-09-29T16:46:40.965Z,22.60
2018-09-29T16:49:09.987Z,23.90
2018-09-29T16:51:38.242Z,23.90
2018-09-29T16:54:06.534Z,23.70
2018-09-29T16:56:34.836Z,24.10
2018-09-29T16:59:03.113Z,23.00
2018-09-29T17:01:31.453Z,24.10
2018-09-29T17:03:59.805Z,23.90
2018-09-29T17:06:28.019Z,23.90
2018-09-29T17:08:56.666Z,24.00
2018-09-29T17:11:26.312Z,24.40
2018-09-29T17:13:54.547Z,24.40
2018-09-29T17:16:23.600Z,24.80
2018-09-29T17:18:51.861Z,24.80
2018-09-29T17:21:20.163Z,25.30
2018-09-29T17:23:49.183Z,24.90
2018-09-29T17:26:18.220Z,25.40
2018-09-29T17:28:46.487Z,25.40
2018-09-29T17:31:14.742Z,25.80
2018-09-29T17:33:42.994Z,25.60
2018-09-29T17:36:12.050Z,26.80
2018-09-29T17:38:40.328Z,26.80
2018-09-29T17:41:08.562Z,26.50
2018-09-29T17:43:36.825Z,25.40
2018-09-29T17:46:05.843Z,26.50
2018-09-29T17:48:34.111Z,26.50
2018-09-29T17:51:02.558Z,26.10
2018-09-29T17:53:30.874Z,27.20
2018-09-29T17:55:59.694Z,28.00
2018-09-29T17:58:29.474Z,29.00
2018-09-29T18:00:57.741Z,28.80
2018-09-29T18:03:25.986Z,28.70
2018-09-29T18:05:55.026Z,29.30
2018-09-29T18:08:23.322Z,29.30
2018-09-29T18:10:51.833Z,29.70
2018-09-29T18:13:20.136Z,30.00
2018-09-29T18:15:48.378Z,29.90
2018-09-29T18:18:16.614Z,29.90
2018-09-29T18:20:44.947Z,29.70
2018-09-29T18:23:14.323Z,29.70
2018-09-29T18:25:42.568Z,29.60
2018-09-29T18:28:11.545Z,30.40
2018-09-29T18:30:39.798Z,30.70
2018-09-29T18:33:08.828Z,31.20
2018-09-29T18:35:37.108Z,31.10
2018-09-29T18:38:05.674Z,31.10
2018-09-29T18:40:33.926Z,30.90
2018-09-29T18:43:02.172Z,31.10
2018-09-29T18:45:31.414Z,30.40
2018-09-29T18:47:59.678Z,31.30
2018-09-29T18:50:31.855Z,30.80
2018-09-29T18:53:00.130Z,30.90
2018-09-29T18:55:28.382Z,30.60
2018-09-29T18:57:57.410Z,31.60
2018-09-29T19:00:25.662Z,31.50
2018-09-29T19:02:53.924Z,32.20
2018-09-29T19:05:22.986Z,32.10
2018-09-29T19:07:51.242Z,32.10
2018-09-29T19:10:19.533Z,32.00
2018-09-29T19:12:47.854Z,31.90
2018-09-29T19:15:16.043Z,33.10
2018-09-29T19:17:44.430Z,32.80
2018-09-29T19:20:12.690Z,34.10
2018-09-29T19:22:40.938Z,34.10
2018-09-29T19:25:09.984Z,33.40
2018-09-29T19:27:38.231Z,33.30
2018-09-29T19:30:07.224Z,33.30
2018-09-29T19:32:35.666Z,33.30
2018-09-29T19:35:05.310Z,33.30
2018-09-29T19:37:33.578Z,34.00
2018-09-29T19:40:02.633Z,34.90
2018-09-29T19:42:30.908Z,34.80
2018-09-29T19:44:59.965Z,33.90
2018-09-29T19:47:28.797Z,33.80
2018-09-29T19:49:57.060Z,34.70
2018-09-29T19:52:25.359Z,34.70
2018-09-29T19:54:53.614Z,34.80
2018-09-29T19:57:21.884Z,35.10
2018-09-29T19:59:50.900Z,34.60
2018-09-29T20:02:20.239Z,33.90
2018-09-29T20:04:48.510Z,33.80
2018-09-29T20:07:16.792Z,33.80
2018-09-29T20:09:45.051Z,34.00
2018-09-29T20:12:13.470Z,33.60
2018-09-29T20:14:41.746Z,34.00
2018-09-29T20:17:10.745Z,33.70
2018-09-29T20:19:39.030Z,33.20
2018-09-29T20:22:07.291Z,33.90
2018-09-29T20:24:35.626Z,33.50
2018-09-29T20:27:03.968Z,33.20
2018-09-29T20:29:32.218Z,33.60
2018-09-29T20:32:01.978Z,34.60
2018-09-29T20:34:30.254Z,33.70
2018-09-29T20:37:00.268Z,33.90
2018-09-29T20:39:28.555Z,33.80
2018-09-29T20:41:57.650Z,33.90
2018-09-29T20:44:25.929Z,33.80
2018-09-29T20:46:54.197Z,33.60
2018-09-29T20:49:22.593Z,34.20
2018-09-29T20:51:50.799Z,34.70
2018-09-29T20:54:19.138Z,34.90
2018-09-29T20:56:47.394Z,35.10
2018-09-29T20:59:16.416Z,36.30
2018-09-29T21:01:44.728Z,36.20
2018-09-29T21:04:13.036Z,36.40
2018-09-29T21:06:41.302Z,36.70
2018-09-29T21:09:11.094Z,36.40
2018-09-29T21:11:43.015Z,36.30
2018-09-29T21:14:22.940Z,36.90
2018-09-29T21:16:54.135Z,37.70
2018-09-29T21:19:23.993Z,37.50
2018-09-29T21:21:52.321Z,37.70
2018-09-29T21:24:20.563Z,37.90
2018-09-29T21:26:48.814Z,38.60
2018-09-29T21:29:17.840Z,38.50
2018-09-29T21:31:46.088Z,38.40
2018-09-29T21:34:14.388Z,38.40
2018-09-29T21:36:43.493Z,38.60
2018-09-29T21:39:11.749Z,38.60
2018-09-29T21:41:40.027Z,38.40
2018-09-29T21:44:09.069Z,39.00
2018-09-29T21:46:38.109Z,39.80
2018-09-29T21:49:06.358Z,39.60
2018-09-29T21:51:34.681Z,39.70
2018-09-29T21:54:03.240Z,39.60
2018-09-29T21:56:31.486Z,39.70
2018-09-29T21:59:00.499Z,39.50
2018-09-29T22:01:28.753Z,39.50
2018-09-29T22:03:57.766Z,40.10
2018-09-29T22:06:26.039Z,40.00
2018-09-29T22:08:54.282Z,40.40
2018-09-29T22:11:23.298Z,39.70
2018-09-29T22:13:51.626Z,39.70
2018-09-29T22:16:20.164Z,39.80
2018-09-29T22:18:48.398Z,40.10
2018-09-29T22:21:16.662Z,40.30
2018-09-29T22:23:45.227Z,40.70
2018-09-29T22:26:14.044Z,40.90
2018-09-29T22:28:42.289Z,40.40
2018-09-29T22:31:11.306Z,40.90
2018-09-29T22:33:39.559Z,40.70
2018-09-29T22:36:08.653Z,40.80
2018-09-29T22:38:36.906Z,40.80
2018-09-29T22:41:05.164Z,40.80
2018-09-29T22:43:33.446Z,40.50
2018-09-29T22:46:01.678Z,40.80
2018-09-29T22:48:29.942Z,40.50
2018-09-29T22:50:58.206Z,40.30
2018-09-29T22:53:26.429Z,40.70
2018-09-29T22:55:54.716Z,40.60
2018-09-29T22:58:22.996Z,40.60
2018-09-29T23:00:51.270Z,40.60
2018-09-29T23:03:19.524Z,40.60
2018-09-29T23:05:47.778Z,40.60
2018-09-29T23:08:16.803Z,40.60
2018-09-29T23:10:45.057Z,40.60
2018-09-29T23:13:14.071Z,40.60
2018-09-29T23:15:43.260Z,40.70
2018-09-29T23:18:11.537Z,40.60
2018-09-29T23:20:40.538Z,40.80
2018-09-29T23:23:08.798Z,40.60
2018-09-29T23:25:38.057Z,40.70
2018-09-29T23:28:06.295Z,40.50
2018-09-29T23:30:34.541Z,40.40
2018-09-29T23:33:03.610Z,40.60
2018-09-29T23:35:31.852Z,40.80
2018-09-29T23:38:00.882Z,39.70
2018-09-29T23:40:29.111Z,40.00
2018-09-29T23:42:57.358Z,40.00
2018-09-29T23:45:25.616Z,40.10
2018-09-29T23:47:58.071Z,40.10
2018-09-29T23:50:27.921Z,40.70
2018-09-29T23:52:56.211Z,40.60
2018-09-29T23:55:24.530Z,40.50
2018-09-29T23:57:52.777Z,40.60
